Terminal Aerodrome Forecast
Issued by NWS

Home | Current Version | Previous Version | Text Only | Print | Product List | Glossary On
Versions: 1 2 3 4 5 6 7 8 9 10 11 12 13 14 15
000
FTAK31 PANC 091726
TAFADL
TAF
PADL 091726Z 0918/1018 34012KT P6SM -SHSN SCT030 BKN050
     FM092000 33013KT 4SM -SN SCT010 BKN025
     FM100200 34010KT P6SM SCT030 BKN050=

USA.gov is the U.S. government's official web portal to all federal, state and local government web resources and services.